KNCA

New River MCAS / H / / McCutcheon Field / Airport

Jacksonville, North Carolina, USA
METAR KNCA 191456Z 29007KT 10SM CLR 06/M06 A3027 RMK AO2 SLP254 T00561061 53013 $
Observed Flight Rules
Jan-19 @ 14:56 UTC (35 minutes ago) Visual Flight Rules
Wind Visibility Clouds
290° at 7 knots 10 miles
  • Clear skies
Temperatures Readings
Current 6°C / 43°F
Dewpoint -6°C / 21°F
Humidity 42%
Altimeter 30.27" Hg
Pressure 1025.4 hPa
Elevation 8
METAR KNCA 191456Z 29007KT 10SM CLR 06/M06 A3027 RMK AO2 SLP254 T00561061 53013 $
Observed Flight Rules
Jan-19 @ 14:56 UTC
(35 minutes ago)
VFR
Wind Visibility
290° at 7 knots 10 miles
Clouds
  • Clear skies
Temperature Dewpoint
6°C / 43°F -6°C / 21°F
Humidity Altimeter Pressure
42% 30.27" Hg 1025.4 hPa